Latest Coastal Weather Observations for Lombadina

IDW60701

Issued at 4:53 pm WST Saturday 22 July 2017 (issued every 10 minutes, with the page automatically refreshed every 10 minutes)

About coastal observations | Map of coastal stations | Coastal observations for WA | Marine services | Other Formats
Station Details ID: 503016 Name: LOMBADINA AIRSTRIP Lat: -16.52 Lon: 122.92 Height: 42.0 m
Data from the previous 72 hours. | See also: Recent months for locations in Western Australia
Date/Time
WST
Temp
°C
Wind Pressure Rain since
9am
mm
Weather Cloud Vis
km
Sea
Height
m
Swell
Dir  Spd
kts
Gust
kts
hPa Trend Height
m
Period
s
Dir
22/04:30pm 26.0 NW 5 8 1013.7 - 0.0 - - 10 - - - -
22/04:00pm 26.3 WNW 5 8 1013.6 - 0.0 - - 10 - - - -
22/03:30pm 26.9 NW 5 7 1013.6 - 0.0 - - 10 - - - -
22/03:00pm 26.8 WNW 5 9 1013.6 - 0.0 - - 10 - - - -
22/02:30pm 27.3 NW 8 11 1013.6 - 0.0 - - 10 - - - -
22/02:00pm 27.2 NW 7 11 1013.9 - 0.0 - - 10 - - - -
22/01:30pm 27.9 NNW 5 12 1014.3 - 0.0 - - 10 - - - -
22/01:00pm 28.0 ENE 3 6 1014.8 - 0.0 - - 10 - - - -
22/12:30pm 28.7 ESE 4 10 1015.1 - 0.0 - - 10 - - - -
22/12:00pm 27.8 ESE 5 9 1015.6 - 0.0 - - 10 - - - -
22/11:30am 26.9 ESE 6 11 1016.2 - 0.0 - - 10 - - - -
22/11:00am 27.5 ESE 5 9 1016.6 - 0.0 - - 10 - - - -
22/10:30am 27.5 E 4 8 1017.1 - 0.0 - - 10 - - - -
22/10:00am 27.1 SE 3 7 1017.2 - 0.0 - - 10 - - - -
22/09:30am 26.2 ESE 4 9 1017.4 - 0.0 - - 10 - - - -
22/09:00am 25.2 ESE 4 7 1017.4 - 0.4 - - 10 - - - -
22/08:30am 23.9 ESE 4 6 1017.2 - 0.4 - - 10 - - - -
22/08:00am 22.5 ESE 3 6 1017.0 - 0.4 - - 10 - - - -
22/07:30am 21.0 ESE 3 5 1016.8 - 0.0 - - 10 - - - -
22/07:00am 20.4 ESE 3 5 1016.4 - 0.0 - - 10 - - - -
22/06:57am 19.9 ESE 3 5 1016.3 - 0.0 - - 10 - - - -
22/06:30am 18.0 SE 2 3 1015.9 - 0.0 - - 0.8 - - - -
22/06:00am 17.1 SE 1 3 1015.5 - 0.0 - - 0.5 - - - -
22/05:49am 17.7 CALM 0 1 1015.4 - 0.0 - Partly cloudy 0.6 - - - -
22/05:30am 17.4 CALM 0 2 1015.2 - 0.0 - Partly cloudy 0.5 - - - -
22/05:13am 17.6 E 1 2 1015.1 - 0.0 - Partly cloudy 0.9 - - - -
22/05:06am 17.8 ESE 1 2 1015.1 - 0.0 - Partly cloudy 5 - - - -
22/05:00am 17.5 CALM 0 1 1015.0 - 0.0 - - 5 - - - -
22/04:58am 18.0 CALM 0 0 1015.0 - 0.0 - Partly cloudy 9 - - - -
22/04:30am 18.4 CALM 0 0 1015.0 - 0.0 - Partly cloudy 0.2 - - - -
22/04:10am 18.8 CALM 0 2 1015.0 - 0.0 - Partly cloudy 0.7 - - - -
22/04:00am 19.6 SSW 1 3 1014.9 - 0.0 - Partly cloudy 1 - - - -
22/03:30am 20.0 SW 3 4 1014.8 - 0.0 - Partly cloudy 0.2 - - - -
22/03:26am 20.2 SW 3 5 1014.7 - 0.0 - Partly cloudy 0.4 - - - -
22/03:04am 20.0 SW 3 4 1014.7 - 0.0 - - 5 - - - -
22/03:00am 19.8 SW 3 4 1014.7 - 0.0 - - 7 - - - -
22/02:36am 20.0 SW 3 5 1014.8 - 0.0 - - 10 - - - -
22/02:30am 20.0 SW 3 5 1014.9 - 0.0 - - 8 - - - -
22/02:18am 19.9 SW 3 4 1015.0 - 0.0 - - 5 - - - -
22/02:00am 19.9 SW 3 5 1015.0 - 0.0 - - 10 - - - -
22/01:43am 19.7 SW 3 4 1015.1 - 0.0 - - 8 - - - -
22/01:30am 19.4 SW 3 4 1015.1 - 0.0 - - 2 - - - -
22/01:00am 19.4 SW 2 4 1015.4 - 0.0 - - 3 - - - -
22/12:43am 19.4 SSW 2 3 1015.6 - 0.0 - - 4 - - - -
22/12:30am 19.5 SSW 3 4 1015.7 - 0.0 - - 10 - - - -
22/12:15am 19.7 SSW 3 5 1015.8 - 0.0 - - 10 - - - -
22/12:00am 19.9 SW 3 5 1016.0 - 0.0 - - 2 - - - -
 
Date/Time
WST
Temp
°C
Wind Pressure Rain since
9am
mm
Weather Cloud Vis
km
Sea
Height
m
Swell
Dir  Spd
kts
Gust
kts
hPa Trend Height
m
Period
s
Dir
21/11:55pm 19.9 SW 2 5 1016.0 - 0.0 - - 4 - - - -
21/11:43pm 20.2 SSW 3 4 1016.1 - 0.0 - Partly cloudy 8 - - - -
21/11:36pm 20.1 SSW 3 4 1016.2 - 0.0 - Partly cloudy 7 - - - -
21/11:30pm 20.2 SSW 3 5 1016.2 - 0.0 - Partly cloudy 3 - - - -
21/11:16pm 20.2 SSW 2 4 1016.4 - 0.0 - Partly cloudy 0.6 - - - -
21/11:03pm 20.1 SSW 3 4 1016.5 - 0.0 - - 5 - - - -
21/11:00pm 20.2 SW 2 4 1016.5 - 0.0 - - 10 - - - -
21/10:30pm 20.3 SW 3 4 1016.6 - 0.0 - - 10 - - - -
21/10:00pm 19.6 CALM 0 0 1016.6 - 0.0 - - 8 - - - -
21/09:30pm 20.2 CALM 0 0 1016.5 - 0.0 - - 10 - - - -
21/09:00pm 20.5 CALM 0 0 1016.4 - 0.0 - - 10 - - - -
21/08:30pm 20.9 CALM 0 0 1016.3 - 0.0 - - 10 - - - -
21/08:00pm 20.6 CALM 0 1 1016.1 - 0.0 - - 10 - - - -
21/07:30pm 20.6 N 1 2 1016.0 - 0.0 - - 10 - - - -
21/07:00pm 21.1 NNW 1 2 1015.6 - 0.0 - - 10 - - - -
21/06:30pm 21.6 NNW 2 3 1015.3 - 0.0 - - 10 - - - -
21/06:00pm 23.9 NNW 3 3 1015.0 - 0.0 - - 10 - - - -
21/05:30pm 25.0 NW 3 4 1015.0 - 0.0 - - 10 - - - -
21/05:00pm 26.5 NW 4 6 1014.7 - 0.0 - - 10 - - - -
21/04:30pm 27.3 WNW 5 7 1014.5 - 0.0 - - 10 - - - -
21/04:00pm 28.0 NW 6 9 1014.2 - 0.0 - - 10 - - - -
21/03:30pm 28.5 NW 6 10 1014.0 - 0.0 - - 10 - - - -
21/03:00pm 28.8 NW 7 11 1013.8 - 0.0 - - 10 - - - -
21/02:30pm 29.3 NW 9 13 1013.6 - 0.0 - - 10 - - - -
21/02:00pm 29.9 NW 7 13 1013.6 - 0.0 - - 10 - - - -
21/01:30pm 30.1 N 6 12 1013.8 - 0.0 - - 10 - - - -
21/01:00pm 30.6 NE 3 7 1014.1 - 0.0 - - 10 - - - -
21/12:30pm 29.6 E 6 10 1014.4 - 0.0 - - 10 - - - -
21/12:00pm 28.3 W 4 10 1014.7 - 0.0 - - 10 - - - -
21/11:30am 29.6 NE 3 8 1015.1 - 0.0 - - 10 - - - -
21/11:00am 28.5 E 4 7 1015.4 - 0.0 - - 10 - - - -
21/10:30am 27.9 E 3 8 1015.7 - 0.0 - - 10 - - - -
21/10:00am 27.8 E 4 7 1015.9 - 0.0 - - 10 - - - -
21/09:30am 27.3 E 3 7 1016.0 - 0.0 - - 10 - - - -
21/09:00am 27.1 NE 4 5 1016.0 - 0.0 - - 10 - - - -
21/08:30am 25.6 ENE 4 8 1015.9 - 0.0 - - 10 - - - -
21/08:00am 24.3 ENE 2 4 1015.6 - 0.0 - - 10 - - - -
21/07:30am 22.4 E 2 5 1015.1 - 0.0 - - 10 - - - -
21/07:00am 18.7 E 3 4 1014.7 - 0.0 - - 10 - - - -
21/06:30am 18.0 E 3 6 1014.4 - 0.0 - - 10 - - - -
21/06:00am 18.3 ESE 4 6 1014.0 - 0.0 - - 10 - - - -
21/05:30am 18.1 SE 3 8 1013.7 - 0.0 - - 10 - - - -
21/05:21am 18.5 SE 4 8 1013.6 - 0.0 - - 10 - - - -
21/05:00am 17.6 SSW 2 3 1013.2 - 0.0 - - 0.6 - - - -
21/04:33am 18.0 SW 1 3 1013.0 - 0.0 - - 5 - - - -
21/04:30am 17.8 SW 2 3 1013.0 - 0.0 - - 5 - - - -
21/04:00am 18.5 SW 3 4 1012.9 - 0.0 - - 10 - - - -
21/03:30am 18.1 SW 3 5 1012.8 - 0.0 - - 10 - - - -
21/03:00am 17.6 SW 3 4 1012.9 - 0.0 - - 10 - - - -
21/02:56am 17.7 SW 3 5 1012.9 - 0.0 - - 10 - - - -
21/02:30am 18.3 SW 1 2 1012.9 - 0.0 - - 0.3 - - - -
21/02:00am 18.7 SW 2 4 1013.1 - 0.0 - - 0.5 - - - -
21/01:30am 18.4 SW 2 3 1013.4 - 0.0 - - 0.4 - - - -
21/01:00am 18.5 CALM 0 3 1013.7 - 0.0 - - 5 - - - -
21/12:30am 18.5 W 1 3 1014.0 - 0.0 - - 0.5 - - - -
21/12:18am 19.0 CALM 0 0 1014.1 - 0.0 - - 4 - - - -
21/12:13am 18.7 CALM 0 3 1014.2 - 0.0 - - 10 - - - -
21/12:00am 18.8 CALM 0 2 1014.3 - 0.0 - - 1 - - - -
 
Date/Time
WST
Temp
°C
Wind Pressure Rain since
9am
mm
Weather Cloud Vis
km
Sea
Height
m
Swell
Dir  Spd
kts
Gust
kts
hPa Trend Height
m
Period
s
Dir
20/11:30pm 19.1 SW 2 3 1014.4 - 0.0 - - 0.9 - - - -
20/11:25pm 18.6 SW 2 3 1014.4 - 0.0 - - 4 - - - -
20/11:00pm 18.3 SW 2 3 1014.4 - 0.0 - - 10 - - - -
20/10:30pm 19.2 CALM 0 2 1014.3 - 0.0 - - 10 - - - -
20/10:00pm 19.1 W 1 3 1014.3 - 0.0 - - 10 - - - -
20/09:30pm 19.8 WSW 3 4 1014.4 - 0.0 - - 10 - - - -
20/09:00pm 19.0 WSW 2 3 1014.3 - 0.0 - - 10 - - - -
20/08:30pm 18.8 WSW 3 4 1014.1 - 0.0 - - 10 - - - -
20/08:00pm 18.8 W 2 3 1013.6 - 0.0 - - 10 - - - -
20/07:30pm 19.3 CALM 0 2 1013.4 - 0.0 - - 10 - - - -
20/07:00pm 19.3 CALM 0 1 1012.9 - 0.0 - - 10 - - - -
20/06:30pm 20.1 WNW 1 1 1012.7 - 0.0 - - 10 - - - -
20/06:00pm 21.6 CALM 0 1 1012.3 - 0.0 - - 10 - - - -
20/05:30pm 24.6 NW 3 5 1012.1 - 0.0 - - 10 - - - -
20/05:00pm 26.3 WNW 4 6 1012.0 - 0.0 - - 10 - - - -
20/04:30pm 27.8 WNW 4 6 1011.8 - 0.0 - - 10 - - - -
20/04:00pm 27.9 W 5 8 1011.6 - 0.0 - - 10 - - - -
20/03:30pm 28.2 WNW 5 8 1011.4 - 0.0 - - 10 - - - -
20/03:00pm 29.1 NW 5 9 1011.4 - 0.0 - - 10 - - - -
20/02:30pm 30.6 ENE 3 6 1011.4 - 0.0 - - 10 - - - -
20/02:00pm 31.2 E 3 6 1011.5 - 0.0 - - 10 - - - -
20/01:30pm 30.5 E 3 7 1011.9 - 0.0 - - 10 - - - -
20/01:00pm 29.8 ESE 5 8 1012.4 - 0.0 - - 10 - - - -
20/12:30pm 29.6 SE 4 8 1013.0 - 0.0 - - 10 - - - -
20/12:00pm 28.9 ESE 6 11 1013.4 - 0.0 - - 10 - - - -
20/11:30am 28.7 ESE 5 9 1013.8 - 0.0 - - 10 - - - -
20/11:00am 28.1 SE 5 9 1014.3 - 0.0 - - 10 - - - -
20/10:30am 27.8 SE 5 9 1014.5 - 0.0 - - 10 - - - -
20/10:00am 28.0 ESE 3 6 1014.7 - 0.0 - - 10 - - - -
20/09:30am 27.3 SSE 4 7 1014.8 - 0.0 - - 10 - - - -
20/09:00am 27.2 SSE 3 5 1014.8 - 0.0 - - 10 - - - -
20/08:30am 26.0 SE 2 4 1014.8 - 0.0 - - 10 - - - -
20/08:00am 24.5 SE 2 4 1014.6 - 0.0 - - 10 - - - -
20/07:30am 22.5 SSE 2 3 1014.3 - 0.0 - - 10 - - - -
20/07:00am 19.2 S 3 5 1014.0 - 0.0 - - 10 - - - -
20/06:30am 16.9 SSE 2 3 1013.6 - 0.0 - - 10 - - - -
20/06:00am 19.0 S 3 5 1013.3 - 0.0 - - 10 - - - -
20/05:30am 17.7 S 3 5 1012.8 - 0.0 - - 10 - - - -
20/05:00am 17.6 SSW 3 4 1012.8 - 0.0 - - 10 - - - -
20/04:30am 18.0 SSW 2 4 1012.6 - 0.0 - - 10 - - - -
20/04:00am 17.7 SSW 2 4 1012.6 - 0.0 - - 10 - - - -
20/03:30am 17.8 S 3 5 1012.8 - 0.0 - - 10 - - - -
20/03:00am 18.9 SSW 3 4 1013.0 - 0.0 - - 10 - - - -
20/02:30am 18.0 SW 1 3 1013.1 - 0.0 - - 10 - - - -
20/02:00am 17.9 SSW 3 5 1013.3 - 0.0 - - 10 - - - -
20/01:30am 18.9 CALM 0 2 1013.4 - 0.0 - - 10 - - - -
20/01:00am 19.4 SW 3 5 1013.5 - 0.0 - - 10 - - - -
20/12:30am 21.5 SSW 4 7 1013.6 - 0.0 - - 10 - - - -
20/12:00am 17.4 SSW 3 4 1013.9 - 0.0 - - 10 - - - -
 
Date/Time
WST
Temp
°C
Wind Pressure Rain since
9am
mm
Weather Cloud Vis
km
Sea
Height
m
Swell
Dir  Spd
kts
Gust
kts
hPa Trend Height
m
Period
s
Dir
19/11:30pm 18.9 CALM 0 2 1014.1 - 0.0 - - 10 - - - -
19/11:00pm 19.4 CALM 0 1 1014.4 - 0.0 - - 10 - - - -
19/10:30pm 19.2 W 2 3 1014.3 - 0.0 - - 10 - - - -
19/10:00pm 19.4 CALM 0 0 1014.6 - 0.0 - - 10 - - - -
19/09:30pm 19.7 CALM 0 0 1014.8 - 0.0 - - 10 - - - -
19/09:00pm 19.4 CALM 0 0 1014.9 - 0.0 - - 10 - - - -
19/08:30pm 19.9 ESE 1 2 1014.9 - 0.0 - - 10 - - - -
19/08:00pm 20.3 ESE 2 3 1014.6 - 0.0 - - 10 - - - -
19/07:30pm 19.8 ESE 2 3 1014.3 - 0.0 - - 10 - - - -
19/07:00pm 20.6 ESE 2 4 1014.1 - 0.0 - - 10 - - - -
19/06:30pm 21.1 ESE 2 3 1013.9 - 0.0 - - 10 - - - -
19/06:00pm 22.3 ESE 2 4 1013.6 - 0.0 - - 10 - - - -
19/05:30pm 24.4 ESE 3 4 1013.3 - 0.0 - - 10 - - - -
19/05:00pm 26.8 ESE 3 4 1013.0 - 0.0 - - 10 - - - -

Other Formats:

Comma delimited format used in spreadsheet applications
http://www.bom.gov.au/fwo/IDW60701/IDW60701.99206.axf

JavaScript Object Notation format (JSON) in row-major order
http://www.bom.gov.au/fwo/IDW60701/IDW60701.99206.json